createdAt,value
2023-01-25T05:32:28.370Z,2.20
2023-01-25T05:33:31.239Z,1.65
2023-01-25T05:34:33.887Z,2.31
2023-01-25T05:35:36.888Z,2.24
2023-01-25T05:36:40.069Z,2.25
2023-01-25T05:37:43.033Z,1.97
2023-01-25T05:38:46.205Z,2.16
2023-01-25T05:39:49.509Z,2.24
2023-01-25T05:40:52.472Z,2.33
2023-01-25T05:41:55.351Z,2.19
2023-01-25T05:42:58.359Z,2.31
2023-01-25T05:44:01.317Z,2.45
2023-01-25T05:45:04.286Z,2.22
2023-01-25T05:46:06.984Z,2.15
2023-01-25T05:47:09.530Z,2.43
2023-01-25T05:48:12.379Z,2.26
2023-01-25T05:49:15.157Z,2.20
2023-01-25T05:50:17.843Z,2.07
2023-01-25T05:51:20.389Z,1.98
2023-01-25T05:52:23.069Z,2.36
2023-01-25T05:53:26.166Z,2.31
2023-01-25T05:54:29.128Z,2.08
2023-01-25T05:55:32.207Z,1.96
2023-01-25T05:56:35.291Z,2.27
2023-01-25T05:57:38.252Z,2.15
2023-01-25T05:58:40.975Z,2.21
2023-01-25T05:59:43.899Z,2.39
2023-01-25T06:00:46.891Z,1.95
2023-01-25T06:01:49.751Z,2.37
2023-01-25T06:02:52.830Z,2.49
2023-01-25T06:03:55.704Z,2.21
2023-01-25T06:04:58.601Z,2.05
2023-01-25T06:06:01.457Z,2.55
2023-01-25T06:07:04.434Z,2.15
2023-01-25T06:08:07.514Z,2.05
2023-01-25T06:09:10.402Z,2.08
2023-01-25T06:10:13.270Z,2.32
2023-01-25T06:11:16.447Z,2.61
2023-01-25T06:12:19.419Z,1.98
2023-01-25T06:13:22.514Z,1.81
2023-01-25T06:14:25.595Z,1.96
2023-01-25T06:15:28.452Z,2.31
2023-01-25T06:16:31.426Z,2.30
2023-01-25T06:17:34.403Z,2.03
2023-01-25T06:18:37.501Z,2.05
2023-01-25T06:19:40.358Z,2.24
2023-01-25T06:20:43.235Z,2.12
2023-01-25T06:21:46.211Z,2.28
2023-01-25T06:22:49.199Z,2.12
2023-01-25T06:23:51.891Z,2.00
2023-01-25T06:24:54.959Z,2.22
2023-01-25T06:25:58.032Z,2.07
2023-01-25T06:27:00.890Z,2.32
2023-01-25T06:28:03.872Z,2.31
2023-01-25T06:29:07.392Z,2.21
2023-01-25T06:30:10.135Z,2.14
2023-01-25T06:31:13.109Z,2.12
2023-01-25T06:32:15.846Z,2.11
2023-01-25T06:33:18.445Z,2.20
2023-01-25T06:34:21.034Z,1.93
2023-01-25T06:35:23.795Z,2.22
2023-01-25T06:36:26.455Z,2.46
2023-01-25T06:37:29.559Z,2.49
2023-01-25T06:38:32.514Z,2.63
2023-01-25T06:39:35.604Z,2.40
2023-01-25T06:40:38.473Z,2.42
2023-01-25T06:41:41.349Z,2.78
2023-01-25T06:42:44.119Z,2.58
2023-01-25T06:43:47.309Z,2.78
2023-01-25T06:44:50.284Z,2.88
2023-01-25T06:45:53.362Z,2.58
2023-01-25T06:46:56.398Z,2.67
2023-01-25T06:47:59.203Z,2.68
2023-01-25T06:49:02.225Z,2.91
2023-01-25T06:50:05.255Z,2.86
2023-01-25T06:51:07.942Z,2.53
2023-01-25T06:59:33.266Z,2.54
2023-01-25T07:00:35.968Z,2.00
2023-01-25T07:01:38.686Z,2.88
2023-01-25T07:02:41.480Z,2.44
2023-01-25T07:03:44.161Z,2.40
2023-01-25T07:04:46.836Z,2.35
2023-01-25T07:05:49.706Z,2.47
2023-01-25T07:06:52.481Z,2.85
2023-01-25T07:07:55.151Z,2.52
2023-01-25T07:08:57.719Z,2.62
2023-01-25T07:10:00.291Z,2.57
2023-01-25T07:11:02.952Z,2.68
2023-01-25T07:12:05.627Z,2.78
2023-01-25T07:13:08.394Z,2.78
2023-01-25T07:14:10.964Z,2.54
2023-01-25T07:15:13.738Z,2.66
2023-01-25T07:16:16.573Z,2.60
2023-01-25T07:17:19.397Z,2.48
2023-01-25T07:18:22.360Z,2.61
2023-01-25T07:19:24.930Z,2.37
2023-01-25T07:20:27.722Z,2.38
2023-01-25T07:21:30.689Z,2.18
2023-01-25T07:22:33.558Z,2.51
2023-01-25T07:23:36.451Z,2.06
2023-01-25T07:24:39.220Z,2.01
2023-01-25T07:25:42.095Z,2.22
2023-01-25T07:26:45.056Z,2.07
2023-01-25T07:27:48.189Z,2.31
2023-01-25T07:28:51.240Z,2.03
2023-01-25T07:29:54.605Z,2.18
2023-01-25T07:30:57.591Z,1.95
2023-01-25T07:32:00.742Z,2.09
2023-01-25T07:33:03.950Z,2.29
2023-01-25T07:34:06.828Z,2.61
2023-01-25T07:35:10.314Z,2.17
2023-01-25T07:36:13.627Z,2.26
2023-01-25T07:37:16.466Z,2.30
2023-01-25T07:38:19.358Z,2.22
2023-01-25T07:39:22.230Z,1.88
2023-01-25T07:40:25.204Z,2.16
2023-01-25T07:41:28.288Z,2.19
2023-01-25T07:42:31.249Z,2.12
2023-01-25T07:43:34.121Z,2.08
2023-01-25T07:44:37.120Z,2.42
2023-01-25T07:45:39.992Z,2.19
2023-01-25T07:46:42.960Z,2.18
2023-01-25T07:47:45.717Z,2.13
2023-01-25T07:48:48.626Z,2.05
2023-01-25T07:49:51.497Z,1.85
2023-01-25T07:50:54.357Z,2.29
2023-01-25T07:51:57.227Z,2.29
2023-01-25T07:53:00.126Z,2.08
2023-01-25T07:54:02.660Z,2.12
2023-01-25T07:55:05.356Z,1.94
2023-01-25T07:56:08.324Z,2.18
2023-01-25T07:57:11.288Z,2.22
2023-01-25T07:58:14.467Z,1.98
2023-01-25T07:59:17.468Z,2.01
2023-01-25T08:00:20.529Z,2.38
2023-01-25T08:01:23.310Z,2.07
2023-01-25T08:02:26.069Z,2.08
2023-01-25T08:03:29.245Z,2.15
2023-01-25T08:04:32.128Z,1.90
2023-01-25T08:05:35.219Z,2.06
2023-01-25T08:06:38.164Z,2.31
2023-01-25T08:07:40.857Z,2.03
2023-01-25T08:08:43.836Z,2.09
2023-01-25T08:09:46.908Z,2.11
2023-01-25T08:10:50.082Z,2.15
2023-01-25T08:11:52.978Z,1.93
2023-01-25T08:12:56.073Z,2.01
2023-01-25T08:13:59.025Z,2.12
2023-01-25T08:15:02.000Z,2.28
2023-01-25T08:16:04.879Z,2.05
2023-01-25T08:17:08.177Z,1.98
2023-01-25T08:18:11.144Z,1.85
2023-01-25T08:19:13.805Z,2.28
2023-01-25T08:20:16.893Z,2.62
2023-01-25T08:21:19.770Z,2.38
2023-01-25T08:22:22.730Z,2.46
2023-01-25T08:23:26.136Z,2.60
2023-01-25T08:24:29.131Z,2.21
2023-01-25T08:25:31.967Z,2.55
2023-01-25T08:26:34.989Z,2.51
2023-01-25T08:27:38.029Z,2.28
2023-01-25T08:28:40.996Z,2.50
2023-01-25T08:29:44.099Z,2.35
2023-01-25T08:30:56.979Z,2.28
2023-01-25T08:31:51.981Z,2.26
2023-01-25T08:32:54.957Z,2.37
2023-01-25T08:33:57.712Z,2.55
2023-01-25T08:35:00.430Z,2.30
2023-01-25T08:36:02.994Z,2.33
2023-01-25T08:37:05.756Z,2.42
2023-01-25T08:38:08.835Z,2.52
2023-01-25T08:39:11.494Z,2.40
2023-01-25T08:40:14.482Z,2.45
2023-01-25T08:41:17.496Z,2.61
2023-01-25T08:42:21.602Z,2.77
2023-01-25T08:43:24.643Z,2.74
2023-01-25T08:44:27.703Z,2.76
2023-01-25T08:45:30.701Z,2.47
2023-01-25T08:46:33.788Z,2.46
2023-01-25T08:47:37.079Z,2.43
2023-01-25T08:48:40.253Z,2.58
2023-01-25T08:49:43.047Z,2.83
2023-01-25T08:50:46.031Z,2.43
2023-01-25T08:51:48.861Z,2.68
2023-01-25T08:52:52.037Z,2.48
2023-01-25T08:53:55.129Z,2.67
2023-01-25T08:54:57.986Z,2.92
2023-01-25T08:56:01.604Z,2.79
2023-01-25T08:57:04.354Z,2.93
2023-01-25T08:58:07.136Z,3.17
2023-01-25T08:59:09.930Z,2.92
2023-01-25T09:00:12.874Z,3.06
2023-01-25T09:01:15.869Z,2.95
2023-01-25T09:02:18.738Z,3.24
2023-01-25T09:03:21.560Z,3.27
2023-01-25T09:04:24.595Z,2.91
2023-01-25T09:05:27.668Z,3.13
2023-01-25T09:06:30.655Z,2.85
2023-01-25T09:07:33.827Z,2.83
2023-01-25T09:08:38.135Z,2.53
2023-01-25T09:09:40.995Z,2.77
2023-01-25T09:10:43.771Z,3.00
2023-01-25T09:11:46.877Z,2.72
2023-01-25T09:12:49.926Z,3.14
2023-01-25T09:13:53.026Z,2.98
2023-01-25T09:14:56.096Z,3.11
2023-01-25T09:15:59.178Z,2.76
2023-01-25T09:17:02.098Z,2.86
2023-01-25T09:18:05.351Z,2.71
2023-01-25T09:19:08.309Z,2.95
2023-01-25T09:20:11.431Z,2.44
2023-01-25T09:21:14.482Z,2.81
2023-01-25T09:22:17.153Z,2.85
2023-01-25T09:23:19.818Z,2.85
2023-01-25T09:24:22.609Z,2.77
2023-01-25T09:25:25.261Z,3.14
2023-01-25T09:26:28.226Z,3.16
2023-01-25T09:27:31.132Z,3.37
2023-01-25T09:28:33.898Z,3.56
2023-01-25T09:29:39.463Z,3.16
2023-01-25T09:30:48.548Z,3.33
2023-01-25T09:31:45.463Z,3.24
2023-01-25T09:32:49.098Z,2.92
2023-01-25T09:33:51.832Z,2.98
2023-01-25T09:34:54.957Z,3.10
2023-01-25T09:35:57.597Z,3.11
2023-01-25T09:37:00.257Z,2.96
2023-01-25T09:38:03.133Z,3.48
2023-01-25T09:39:05.808Z,3.45
2023-01-25T09:40:09.237Z,3.19
2023-01-25T09:41:12.365Z,3.23
2023-01-25T09:42:15.771Z,3.24
2023-01-25T09:43:18.730Z,3.26
2023-01-25T09:44:22.673Z,3.18
2023-01-25T09:45:26.116Z,3.09
2023-01-25T09:46:29.235Z,2.95
2023-01-25T09:47:32.170Z,3.00
2023-01-25T09:48:35.482Z,3.18
2023-01-25T09:49:38.639Z,3.19
2023-01-25T09:50:41.613Z,3.13
2023-01-25T09:51:44.487Z,2.91
2023-01-25T09:52:47.479Z,3.13
2023-01-25T09:53:50.239Z,3.47
2023-01-25T09:54:53.210Z,3.19
2023-01-25T09:55:56.310Z,2.99
2023-01-25T09:56:59.167Z,3.18
2023-01-25T09:58:02.056Z,3.04
2023-01-25T09:59:04.909Z,2.98
2023-01-25T10:00:08.640Z,3.57
2023-01-25T10:01:14.457Z,3.12
2023-01-25T10:02:16.344Z,3.23
2023-01-25T10:03:19.282Z,2.92
2023-01-25T10:04:22.261Z,3.11
2023-01-25T10:05:25.349Z,3.34
2023-01-25T10:06:31.709Z,3.22
2023-01-25T10:07:34.678Z,3.52
2023-01-25T10:08:37.443Z,3.63
2023-01-25T10:09:40.327Z,3.62
2023-01-25T10:10:43.099Z,4.04
2023-01-25T10:11:46.072Z,3.51
2023-01-25T10:12:48.959Z,3.53
2023-01-25T10:13:51.558Z,3.72
2023-01-25T10:14:54.190Z,3.25
2023-01-25T10:15:57.021Z,3.42
2023-01-25T10:16:59.930Z,3.59
2023-01-25T10:18:02.911Z,3.45
2023-01-25T10:19:06.087Z,3.75
2023-01-25T10:20:09.200Z,3.40
2023-01-25T10:21:12.353Z,3.58
2023-01-25T10:22:15.334Z,3.59
2023-01-25T10:23:18.397Z,3.56
2023-01-25T10:24:21.331Z,3.54
2023-01-25T10:25:24.680Z,3.84
2023-01-25T10:26:27.659Z,3.92
2023-01-25T10:27:30.627Z,3.86
2023-01-25T10:28:33.495Z,4.58
2023-01-25T10:29:36.703Z,3.62
2023-01-25T10:30:39.477Z,3.64
2023-01-25T10:31:42.326Z,4.01
2023-01-25T10:32:55.416Z,4.02
2023-01-25T10:33:49.717Z,3.67
2023-01-25T10:34:57.285Z,3.33
2023-01-25T10:35:56.993Z,4.14
2023-01-25T10:36:59.687Z,4.07
2023-01-25T10:38:02.541Z,4.32
2023-01-25T10:39:05.615Z,3.66
2023-01-25T10:40:08.807Z,3.75
2023-01-25T10:41:11.683Z,3.83
2023-01-25T10:42:14.563Z,3.80
2023-01-25T10:43:17.413Z,3.64
2023-01-25T10:44:20.192Z,3.88
2023-01-25T10:45:23.021Z,3.72
2023-01-25T10:46:25.959Z,3.88
2023-01-25T10:47:29.021Z,3.98
2023-01-25T10:48:32.097Z,3.86
2023-01-25T10:49:35.074Z,4.21
2023-01-25T10:50:38.059Z,4.09
2023-01-25T10:51:41.145Z,4.01
2023-01-25T10:52:44.372Z,4.28
2023-01-25T10:53:47.405Z,4.08
2023-01-25T10:54:50.064Z,3.92
2023-01-25T10:55:52.762Z,3.99
2023-01-25T10:56:55.298Z,3.85
2023-01-25T10:57:57.983Z,3.75
2023-01-25T10:59:00.645Z,3.55
2023-01-25T11:00:03.322Z,3.60
2023-01-25T11:01:06.082Z,3.72
2023-01-25T11:02:08.781Z,3.62
2023-01-25T11:03:11.816Z,3.46
2023-01-25T11:04:14.710Z,3.62
2023-01-25T11:05:17.904Z,3.58
2023-01-25T11:06:21.392Z,3.58
2023-01-25T11:07:24.458Z,3.82
2023-01-25T11:08:27.661Z,3.65
2023-01-25T11:09:30.621Z,3.72
2023-01-25T11:10:33.424Z,3.58
2023-01-25T11:11:36.015Z,3.47
2023-01-25T11:12:38.837Z,3.87
2023-01-25T11:13:41.713Z,3.39
2023-01-25T11:14:44.400Z,3.62
2023-01-25T11:15:47.282Z,3.81
2023-01-25T11:16:50.071Z,3.67
2023-01-25T11:17:52.590Z,3.55
2023-01-25T11:18:55.427Z,3.72
2023-01-25T11:19:58.262Z,3.82
2023-01-25T11:21:00.934Z,4.05
2023-01-25T11:22:03.686Z,3.68
2023-01-25T11:23:06.507Z,3.44
2023-01-25T11:24:09.292Z,3.79
2023-01-25T11:25:12.415Z,3.55
2023-01-25T11:26:15.193Z,3.59
2023-01-25T11:27:17.756Z,3.52
2023-01-25T11:28:20.530Z,3.53
2023-01-25T11:29:25.477Z,3.25
2023-01-25T11:30:27.609Z,3.09
2023-01-25T11:31:30.517Z,3.52
2023-01-25T11:32:33.250Z,3.56
2023-01-25T11:33:35.924Z,3.71
2023-01-25T11:34:38.585Z,3.72
2023-01-25T11:35:44.011Z,3.60
2023-01-25T11:36:46.705Z,3.69
2023-01-25T11:37:49.356Z,3.47
2023-01-25T11:38:52.040Z,3.57
2023-01-25T11:39:54.815Z,3.42
2023-01-25T11:40:57.374Z,3.42
2023-01-25T11:42:00.068Z,3.60
2023-01-25T11:43:02.908Z,3.53
2023-01-25T11:44:05.495Z,3.69
2023-01-25T11:45:08.046Z,3.12
2023-01-25T11:46:10.805Z,3.38
2023-01-25T11:47:13.392Z,3.56
2023-01-25T11:48:16.245Z,3.08
2023-01-25T11:49:19.041Z,3.33
2023-01-25T11:50:21.732Z,3.18
2023-01-25T11:51:24.532Z,3.22
2023-01-25T11:52:27.344Z,3.87
2023-01-25T11:53:30.041Z,3.32
2023-01-25T11:54:32.794Z,3.47
2023-01-25T11:55:35.365Z,3.36
2023-01-25T11:56:38.257Z,3.21
2023-01-25T11:57:40.899Z,3.38
2023-01-25T11:58:43.778Z,3.19
2023-01-25T11:59:46.464Z,3.25
2023-01-25T12:00:49.227Z,3.62
2023-01-25T12:01:51.890Z,3.97
2023-01-25T12:02:54.677Z,3.30
2023-01-25T12:03:57.395Z,3.11
2023-01-25T12:05:06.421Z,3.25
2023-01-25T12:06:04.421Z,3.26
2023-01-25T12:07:07.080Z,3.80
2023-01-25T12:08:09.953Z,2.99
2023-01-25T12:09:12.848Z,3.32
2023-01-25T12:10:15.605Z,3.71
2023-01-25T12:11:18.408Z,3.21
2023-01-25T12:12:21.255Z,3.02
2023-01-25T12:13:24.035Z,3.34
2023-01-25T12:14:26.896Z,3.32
2023-01-25T12:15:29.572Z,3.12
2023-01-25T12:16:32.241Z,3.35
2023-01-25T12:17:34.808Z,3.40
2023-01-25T12:18:37.484Z,3.20
2023-01-25T12:19:40.143Z,3.37
2023-01-25T12:20:42.928Z,3.11
2023-01-25T12:21:45.618Z,3.22
2023-01-25T12:22:48.373Z,3.36
2023-01-25T12:23:51.624Z,3.43
2023-01-25T12:24:54.528Z,3.06
2023-01-25T12:25:57.412Z,3.32
2023-01-25T12:27:00.276Z,3.13
2023-01-25T12:28:03.143Z,3.18
2023-01-25T12:29:06.033Z,3.10
2023-01-25T12:30:09.317Z,3.42
2023-01-25T12:31:12.455Z,3.28
2023-01-25T12:32:15.376Z,3.49
2023-01-25T12:33:18.244Z,3.48
2023-01-25T12:34:21.000Z,3.58
2023-01-25T12:35:23.882Z,3.31
2023-01-25T12:36:26.772Z,3.25
2023-01-25T12:37:29.845Z,3.43
2023-01-25T12:38:32.604Z,3.23
2023-01-25T12:39:35.284Z,3.41
2023-01-25T12:40:38.045Z,3.18
2023-01-25T12:41:41.021Z,3.18
2023-01-25T12:42:43.900Z,3.51
2023-01-25T12:43:46.783Z,3.34
2023-01-25T12:44:49.598Z,3.39
2023-01-25T12:45:52.315Z,3.25
2023-01-25T12:46:55.135Z,3.11
2023-01-25T12:47:57.965Z,3.45
2023-01-25T12:49:00.868Z,3.22
2023-01-25T12:50:03.614Z,2.93
2023-01-25T12:51:06.548Z,3.13
2023-01-25T12:52:09.458Z,3.32
2023-01-25T12:53:12.250Z,3.39
2023-01-25T12:54:15.210Z,3.18
2023-01-25T12:55:18.032Z,3.22
2023-01-25T12:56:20.877Z,3.48
2023-01-25T12:57:23.752Z,3.33
2023-01-25T12:58:37.455Z,3.31
2023-01-25T12:59:30.620Z,3.18
2023-01-25T13:00:33.630Z,3.01
2023-01-25T13:01:36.211Z,2.95
2023-01-25T13:02:39.067Z,3.26
2023-01-25T13:03:41.647Z,3.43
2023-01-25T13:04:44.169Z,3.32
2023-01-25T13:05:46.736Z,3.27
2023-01-25T13:06:49.513Z,3.36
2023-01-25T13:07:52.179Z,3.52
2023-01-25T13:08:54.845Z,3.19
2023-01-25T13:09:57.620Z,3.40
2023-01-25T13:11:00.288Z,3.41
2023-01-25T13:12:03.451Z,3.11
2023-01-25T13:13:06.137Z,3.25
2023-01-25T13:14:08.925Z,3.38
2023-01-25T13:15:11.796Z,3.66
2023-01-25T13:16:14.622Z,3.55
2023-01-25T13:17:17.639Z,3.70
2023-01-25T13:18:20.515Z,3.75
2023-01-25T13:19:23.297Z,3.43
2023-01-25T13:20:26.203Z,3.72
2023-01-25T13:21:28.996Z,3.35
2023-01-25T13:22:31.852Z,3.55
2023-01-25T13:23:34.700Z,3.28
2023-01-25T13:24:37.554Z,3.30
2023-01-25T13:25:40.632Z,3.32
2023-01-25T13:26:43.300Z,3.47
2023-01-25T13:27:46.281Z,3.62
2023-01-25T13:28:49.161Z,3.24
2023-01-25T13:29:52.039Z,3.27
2023-01-25T13:30:54.944Z,3.65
2023-01-25T13:31:59.161Z,3.62
2023-01-25T13:33:02.415Z,3.57
2023-01-25T13:34:05.058Z,3.99
2023-01-25T13:35:07.832Z,3.92
2023-01-25T13:36:10.739Z,3.40
2023-01-25T13:37:13.895Z,3.47
2023-01-25T13:38:16.659Z,3.53
2023-01-25T13:39:19.537Z,3.28
2023-01-25T13:40:22.624Z,3.28
2023-01-25T13:41:25.284Z,3.81
2023-01-25T13:42:28.271Z,3.71
2023-01-25T13:43:31.159Z,3.52
2023-01-25T13:44:34.019Z,3.58
2023-01-25T13:45:36.914Z,3.62
2023-01-25T13:46:39.765Z,3.45
2023-01-25T13:47:42.559Z,3.36
2023-01-25T13:48:45.515Z,3.57
2023-01-25T13:49:48.502Z,3.62
2023-01-25T13:50:51.362Z,3.65
2023-01-25T13:51:54.152Z,3.75
2023-01-25T13:52:57.110Z,3.54
2023-01-25T13:53:59.922Z,3.22
2023-01-25T13:55:02.966Z,3.33
2023-01-25T13:56:05.741Z,3.50
2023-01-25T13:57:08.315Z,3.60
2023-01-25T13:58:10.979Z,3.50
2023-01-25T13:59:13.748Z,3.74
2023-01-25T14:00:16.883Z,3.53
2023-01-25T14:01:19.897Z,3.61
2023-01-25T14:02:22.737Z,4.09
2023-01-25T14:03:25.573Z,4.21
2023-01-25T14:04:28.133Z,3.94
2023-01-25T14:05:31.019Z,4.08
2023-01-25T14:06:33.872Z,3.98
2023-01-25T14:07:37.049Z,3.77
2023-01-25T14:08:39.725Z,3.83
2023-01-25T14:09:42.594Z,3.89
2023-01-25T14:10:45.477Z,4.02
2023-01-25T14:11:48.455Z,4.28
2023-01-25T14:12:51.316Z,3.56
2023-01-25T14:13:54.303Z,3.83
2023-01-25T14:14:57.068Z,3.98
2023-01-25T14:15:59.971Z,3.78
2023-01-25T14:17:02.825Z,3.82
2023-01-25T14:18:05.591Z,3.81
2023-01-25T14:19:08.465Z,3.91
2023-01-25T14:20:11.728Z,4.13
2023-01-25T14:21:14.839Z,4.08
2023-01-25T14:22:17.815Z,4.15
2023-01-25T14:23:20.809Z,4.15
2023-01-25T14:24:23.595Z,4.24
2023-01-25T14:25:26.537Z,3.80
2023-01-25T14:26:29.851Z,4.26
2023-01-25T14:27:35.620Z,4.08
2023-01-25T14:28:38.243Z,4.23
2023-01-25T14:29:41.013Z,3.97
2023-01-25T14:30:43.692Z,3.92
2023-01-25T14:31:49.469Z,3.83
2023-01-25T14:32:52.210Z,3.64
2023-01-25T14:33:57.821Z,4.02
2023-01-25T14:34:59.095Z,3.99
2023-01-25T14:36:11.690Z,3.73
2023-01-25T14:37:06.244Z,3.94
2023-01-25T14:38:08.731Z,4.41
2023-01-25T14:39:11.050Z,4.12
2023-01-25T14:40:13.374Z,4.12
2023-01-25T14:41:15.651Z,4.03
2023-01-25T14:42:17.905Z,3.88
2023-01-25T14:43:20.091Z,4.62
2023-01-25T14:44:22.326Z,4.21
2023-01-25T14:45:24.552Z,4.31
2023-01-25T14:46:26.775Z,4.24
2023-01-25T14:47:29.009Z,4.26
2023-01-25T14:48:31.550Z,4.13
2023-01-25T14:49:34.123Z,3.76
2023-01-25T14:50:36.585Z,4.18
2023-01-25T14:51:39.227Z,3.83
2023-01-25T14:52:41.829Z,3.92
2023-01-25T14:53:45.655Z,4.46
2023-01-25T14:54:48.211Z,4.24
2023-01-25T14:55:50.856Z,4.30
2023-01-25T14:56:53.352Z,4.05
2023-01-25T14:57:55.913Z,4.57
2023-01-25T14:59:00.019Z,4.12
2023-01-25T15:00:02.437Z,4.34
2023-01-25T15:01:04.919Z,4.06
2023-01-25T15:02:07.517Z,4.18
2023-01-25T15:03:10.031Z,4.23
2023-01-25T15:04:12.418Z,4.02
2023-01-25T15:05:16.162Z,4.31
2023-01-25T15:06:18.907Z,4.54
2023-01-25T15:07:21.626Z,4.46
2023-01-25T15:08:24.148Z,4.12
2023-01-25T15:09:26.591Z,4.00
2023-01-25T15:10:29.283Z,3.67
2023-01-25T15:11:32.238Z,4.35
2023-01-25T15:12:34.911Z,4.12
2023-01-25T15:13:37.445Z,4.27
2023-01-25T15:14:40.007Z,3.89
2023-01-25T15:15:42.408Z,4.37
2023-01-25T15:16:45.121Z,3.68
2023-01-25T15:17:47.654Z,4.26
2023-01-25T15:18:54.178Z,4.22
2023-01-25T15:19:57.518Z,4.51
2023-01-25T15:21:00.282Z,4.39
2023-01-25T15:22:05.819Z,4.24
2023-01-25T15:23:08.314Z,4.03
2023-01-25T15:24:10.626Z,3.83
2023-01-25T15:25:22.649Z,4.24
2023-01-25T15:26:16.848Z,4.22
2023-01-25T15:27:19.088Z,4.01
2023-01-25T15:28:21.425Z,4.53
2023-01-25T15:29:23.617Z,4.47
2023-01-25T15:30:26.433Z,4.15
2023-01-25T15:31:29.158Z,4.59
2023-01-25T15:32:31.716Z,4.67
2023-01-25T15:33:34.267Z,4.77
2023-01-25T15:34:40.161Z,4.95
2023-01-25T15:35:43.300Z,4.43
2023-01-25T15:36:46.850Z,4.71
2023-01-25T15:37:49.642Z,4.44
2023-01-25T15:38:52.213Z,4.93
2023-01-25T15:39:54.633Z,4.51
2023-01-25T15:40:57.138Z,4.42
2023-01-25T15:41:59.697Z,4.83
2023-01-25T15:43:02.182Z,4.88
2023-01-25T15:44:04.927Z,4.99
2023-01-25T15:45:07.456Z,5.24
2023-01-25T15:46:10.113Z,4.85
2023-01-25T15:47:12.623Z,5.08
2023-01-25T15:48:14.962Z,4.92
2023-01-25T15:49:17.287Z,4.28
2023-01-25T15:50:22.522Z,4.67
2023-01-25T15:51:24.197Z,4.69
2023-01-25T15:52:29.610Z,5.04
2023-01-25T15:53:31.496Z,5.26
2023-01-25T15:54:33.756Z,5.60
2023-01-25T15:55:36.431Z,4.32
2023-01-25T15:56:38.913Z,4.75
2023-01-25T15:57:41.355Z,4.21
2023-01-25T15:58:43.784Z,4.51
2023-01-25T15:59:46.441Z,4.95
2023-01-25T16:00:49.084Z,5.31
2023-01-25T16:01:51.774Z,4.47
2023-01-25T16:02:54.254Z,4.65
2023-01-25T16:03:57.188Z,4.57
2023-01-25T16:04:59.762Z,4.71
2023-01-25T16:06:02.301Z,5.03
2023-01-25T16:07:04.927Z,4.84
2023-01-25T16:08:07.327Z,4.93
2023-01-25T16:09:09.900Z,4.78
2023-01-25T16:10:12.512Z,4.73
2023-01-25T16:11:15.053Z,5.18
2023-01-25T16:12:17.727Z,4.89
2023-01-25T16:13:20.416Z,4.66
2023-01-25T16:14:23.247Z,5.08
2023-01-25T16:15:26.094Z,4.68
2023-01-25T16:16:28.947Z,4.72
2023-01-25T16:17:31.622Z,4.53
2023-01-25T16:18:37.414Z,4.92
2023-01-25T16:19:38.726Z,5.01
2023-01-25T16:20:41.446Z,4.74
2023-01-25T16:21:44.161Z,4.57
2023-01-25T16:22:46.677Z,4.69
2023-01-25T16:23:49.600Z,4.48
2023-01-25T16:24:52.357Z,4.59
2023-01-25T16:25:55.031Z,4.53
2023-01-25T16:26:57.711Z,4.58
2023-01-25T16:28:00.499Z,4.25
2023-01-25T16:29:03.159Z,4.28
2023-01-25T16:30:05.899Z,4.46
2023-01-25T16:31:09.814Z,4.48
2023-01-25T16:32:12.827Z,5.09
2023-01-25T16:33:18.235Z,5.20
2023-01-25T16:35:57.165Z,5.50
2023-01-25T16:36:59.929Z,7.12
2023-01-25T16:38:02.441Z,6.61
2023-01-25T16:39:05.150Z,6.74
2023-01-25T16:40:07.934Z,6.35
2023-01-25T16:41:10.831Z,6.72
2023-01-25T16:42:13.479Z,6.98
2023-01-25T16:43:16.082Z,8.38
2023-01-25T16:44:18.764Z,8.68
2023-01-25T16:45:21.576Z,8.84
2023-01-25T16:46:24.385Z,10.49
2023-01-25T16:47:27.940Z,11.33
2023-01-25T16:48:30.669Z,11.07
2023-01-25T16:49:33.330Z,11.15
2023-01-25T16:50:35.947Z,13.73
2023-01-25T16:51:38.758Z,13.28
2023-01-25T16:52:43.267Z,15.40
2023-01-25T16:53:45.666Z,15.64
2023-01-25T16:54:48.054Z,14.88
2023-01-25T16:55:50.578Z,16.27
2023-01-25T16:56:53.133Z,18.82
2023-01-25T16:57:55.648Z,20.79
2023-01-25T16:58:57.894Z,19.75
2023-01-25T17:00:03.020Z,19.55
2023-01-25T17:01:04.899Z,19.53
2023-01-25T17:02:07.204Z,19.09
2023-01-25T17:03:09.846Z,20.17
2023-01-25T17:04:12.462Z,20.21
2023-01-25T17:05:15.014Z,20.43
2023-01-25T17:06:17.771Z,19.78
2023-01-25T17:07:20.290Z,21.12
2023-01-25T17:08:22.755Z,21.97
2023-01-25T17:09:25.787Z,21.73
2023-01-25T17:10:28.581Z,21.91
2023-01-25T17:11:31.265Z,22.02
2023-01-25T17:12:34.035Z,22.48
2023-01-25T17:13:36.732Z,23.38
2023-01-25T17:14:39.465Z,23.13
2023-01-25T17:15:42.285Z,24.39
2023-01-25T17:16:45.131Z,22.78
2023-01-25T17:17:47.822Z,21.98
2023-01-25T17:18:51.459Z,22.32
2023-01-25T17:19:54.557Z,22.59
2023-01-25T17:20:57.258Z,22.53
2023-01-25T17:21:59.945Z,22.12
2023-01-25T17:23:02.524Z,22.61
2023-01-25T17:24:05.248Z,24.06
2023-01-25T17:25:07.973Z,23.38
2023-01-25T17:26:10.587Z,23.73
2023-01-25T17:27:13.227Z,23.17
2023-01-25T17:28:15.923Z,23.31
2023-01-25T17:29:18.600Z,23.08
2023-01-25T17:30:21.159Z,22.88
2023-01-25T17:31:24.273Z,22.98
2023-01-25T17:32:27.032Z,21.26
2023-01-25T17:33:29.689Z,21.71
2023-01-25T17:34:32.434Z,22.72
2023-01-25T17:35:35.124Z,22.79
2023-01-25T17:36:37.576Z,22.07
2023-01-25T17:38:55.995Z,22.20
2023-01-25T17:39:58.452Z,22.39
2023-01-25T17:41:00.915Z,23.08
2023-01-25T17:42:03.428Z,23.19
2023-01-25T17:43:05.680Z,21.36
2023-01-25T17:44:08.053Z,22.27
2023-01-25T17:45:10.727Z,23.40
2023-01-25T17:47:30.546Z,25.27
2023-01-25T17:48:33.225Z,25.36
2023-01-25T17:49:35.730Z,25.70
2023-01-25T17:50:37.997Z,24.85
2023-01-25T17:51:40.455Z,25.18
2023-01-25T17:52:42.702Z,25.17
2023-01-25T17:53:45.127Z,25.52
2023-01-25T17:54:47.854Z,25.45
2023-01-25T17:55:50.455Z,25.87
2023-01-25T17:56:52.900Z,26.60
2023-01-25T17:59:11.120Z,25.96
2023-01-25T18:00:13.595Z,25.98
2023-01-25T18:01:16.199Z,25.55
2023-01-25T18:02:18.800Z,26.55
2023-01-25T18:03:21.394Z,26.41
2023-01-25T18:04:23.797Z,26.57
2023-01-25T18:06:34.454Z,25.14
2023-01-25T18:07:36.925Z,25.05
2023-01-25T18:09:55.340Z,24.19
2023-01-25T18:10:57.627Z,24.98
2023-01-25T18:12:00.317Z,25.49
2023-01-25T18:13:04.961Z,24.13
2023-01-25T18:14:07.063Z,24.72
2023-01-25T18:15:09.844Z,25.28
2023-01-25T18:16:12.597Z,25.61
2023-01-25T18:17:15.142Z,26.42
2023-01-25T18:18:17.772Z,26.65
2023-01-25T18:19:20.054Z,26.72
2023-01-25T18:20:22.358Z,26.49
2023-01-25T18:21:24.930Z,26.44
2023-01-25T18:22:27.495Z,26.26
2023-01-25T18:23:30.088Z,26.09
2023-01-25T18:24:32.565Z,26.62
2023-01-25T18:25:38.090Z,26.85
2023-01-25T18:27:56.631Z,26.58
2023-01-25T18:28:59.366Z,27.00
2023-01-25T18:30:01.859Z,26.70
2023-01-25T18:31:04.582Z,27.13
2023-01-25T18:32:06.958Z,28.02
2023-01-25T18:33:09.382Z,25.68
2023-01-25T18:34:11.647Z,25.18
2023-01-25T18:35:13.966Z,24.72
2023-01-25T18:37:29.230Z,25.41
2023-01-25T18:38:31.547Z,23.44
2023-01-25T18:39:33.875Z,23.96
2023-01-25T18:40:36.157Z,23.25
2023-01-25T18:41:38.401Z,23.04
2023-01-25T18:42:40.633Z,23.14
2023-01-25T18:44:58.631Z,24.67
2023-01-25T18:46:01.249Z,24.32
2023-01-25T18:47:03.541Z,25.49
2023-01-25T18:48:05.725Z,22.35
2023-01-25T18:49:08.062Z,23.26
2023-01-25T18:50:10.297Z,24.59
2023-01-25T18:51:12.531Z,24.11
2023-01-25T18:53:30.792Z,23.33
2023-01-25T18:54:33.185Z,23.24
2023-01-25T18:55:35.448Z,23.65
2023-01-25T18:56:37.698Z,21.91
2023-01-25T18:57:39.936Z,24.36
2023-01-25T18:58:42.330Z,23.94
2023-01-25T18:59:44.509Z,23.26
2023-01-25T19:00:46.820Z,26.74
2023-01-25T19:03:05.104Z,27.45
2023-01-25T19:04:07.456Z,27.89
2023-01-25T19:05:10.129Z,28.67
2023-01-25T19:06:12.722Z,29.13
2023-01-25T19:07:15.093Z,29.72
2023-01-25T19:08:17.370Z,29.19
2023-01-25T19:09:19.603Z,28.75
2023-01-25T19:10:21.830Z,28.85
2023-01-25T19:11:24.339Z,29.42
2023-01-25T19:13:42.677Z,29.70
2023-01-25T19:14:45.305Z,29.20
2023-01-25T19:15:47.920Z,29.18
2023-01-25T19:16:50.529Z,26.95
2023-01-25T19:17:52.869Z,29.18
2023-01-25T19:18:55.471Z,28.62
2023-01-25T19:19:58.008Z,28.91
2023-01-25T19:21:00.703Z,28.83
2023-01-25T19:22:03.134Z,28.30
2023-01-25T19:24:21.765Z,27.68
2023-01-25T19:25:24.250Z,27.80
2023-01-25T19:26:26.856Z,28.50
2023-01-25T19:27:29.476Z,29.19
2023-01-25T19:28:32.054Z,29.32
2023-01-25T19:29:34.647Z,29.15
2023-01-25T19:30:37.211Z,29.39
2023-01-25T19:31:39.842Z,27.33
2023-01-25T19:32:42.403Z,28.42
2023-01-25T19:33:44.903Z,27.13
2023-01-25T19:34:47.566Z,25.55
2023-01-25T19:35:50.163Z,24.32
2023-01-25T19:36:52.712Z,24.91
2023-01-25T19:39:02.666Z,24.45
2023-01-25T19:40:05.225Z,24.28
2023-01-25T19:41:16.653Z,23.62
2023-01-25T19:42:19.358Z,25.28
2023-01-25T19:43:21.958Z,25.68
2023-01-25T19:44:24.500Z,26.65
2023-01-25T19:45:27.130Z,21.78
2023-01-25T19:46:29.688Z,20.69
2023-01-25T19:47:32.373Z,19.25
2023-01-25T19:48:34.783Z,19.85